sensor_id;sensor_type;location;lat;lon;timestamp;pressure;altitude;pressure_sealevel;temperature;humidity
66176;BME280;52977;44.816;20.538;2023-04-04T00:02:02;99274.25;;;0.16;100.00
66176;BME280;52977;44.816;20.538;2023-04-04T00:04:28;99358.19;;;0.65;100.00
66176;BME280;52977;44.816;20.538;2023-04-04T00:06:54;99365.41;;;0.49;100.00
66176;BME280;52977;44.816;20.538;2023-04-04T00:09:20;99286.00;;;-0.05;100.00
66176;BME280;52977;44.816;20.538;2023-04-04T00:11:46;99367.84;;;0.50;100.00
66176;BME280;52977;44.816;20.538;2023-04-04T00:14:12;99360.59;;;0.56;100.00
66176;BME280;52977;44.816;20.538;2023-04-04T00:16:38;99347.06;;;0.30;100.00
66176;BME280;52977;44.816;20.538;2023-04-04T00:19:05;99329.28;;;0.09;100.00
66176;BME280;52977;44.816;20.538;2023-04-04T00:21:31;99299.41;;;-0.05;100.00
66176;BME280;52977;44.816;20.538;2023-04-04T00:23:57;99310.19;;;0.05;100.00
66176;BME280;52977;44.816;20.538;2023-04-04T00:26:24;99351.19;;;0.54;100.00
66176;BME280;52977;44.816;20.538;2023-04-04T00:29:10;99325.63;;;0.41;100.00
66176;BME280;52977;44.816;20.538;2023-04-04T00:31:36;99314.84;;;0.30;100.00
66176;BME280;52977;44.816;20.538;2023-04-04T00:34:02;99187.59;;;-0.58;100.00
66176;BME280;52977;44.816;20.538;2023-04-04T00:36:28;99301.63;;;0.13;100.00
66176;BME280;52977;44.816;20.538;2023-04-04T00:38:54;99311.31;;;0.14;100.00
66176;BME280;52977;44.816;20.538;2023-04-04T00:41:20;99307.56;;;0.21;100.00
66176;BME280;52977;44.816;20.538;2023-04-04T00:43:47;99332.28;;;0.23;100.00
66176;BME280;52977;44.816;20.538;2023-04-04T00:46:14;99333.38;;;0.32;100.00
66176;BME280;52977;44.816;20.538;2023-04-04T00:48:42;99291.44;;;0.10;100.00
66176;BME280;52977;44.816;20.538;2023-04-04T00:51:08;99280.69;;;0.10;100.00
66176;BME280;52977;44.816;20.538;2023-04-04T00:53:35;99267.31;;;0.26;100.00
66176;BME280;52977;44.816;20.538;2023-04-04T00:56:03;99322.94;;;0.41;100.00
66176;BME280;52977;44.816;20.538;2023-04-04T00:58:29;99231.75;;;-0.18;100.00
66176;BME280;52977;44.816;20.538;2023-04-04T01:00:55;99298.16;;;0.18;100.00
66176;BME280;52977;44.816;20.538;2023-04-04T01:03:22;99301.09;;;0.16;100.00
66176;BME280;52977;44.816;20.538;2023-04-04T01:05:48;99310.47;;;0.04;100.00
66176;BME280;52977;44.816;20.538;2023-04-04T01:08:18;99307.56;;;0.15;100.00
66176;BME280;52977;44.816;20.538;2023-04-04T01:10:47;99328.84;;;0.32;100.00
66176;BME280;52977;44.816;20.538;2023-04-04T01:13:15;99263.88;;;-0.33;100.00
66176;BME280;52977;44.816;20.538;2023-04-04T01:15:42;99317.56;;;0.36;100.00
66176;BME280;52977;44.816;20.538;2023-04-04T01:18:09;99233.88;;;-0.20;100.00
66176;BME280;52977;44.816;20.538;2023-04-04T01:20:41;99321.31;;;0.29;100.00
66176;BME280;52977;44.816;20.538;2023-04-04T01:23:09;99231.19;;;-0.20;100.00
66176;BME280;52977;44.816;20.538;2023-04-04T01:25:36;99326.31;;;0.10;100.00
66176;BME280;52977;44.816;20.538;2023-04-04T01:28:08;99290.81;;;-0.12;100.00
66176;BME280;52977;44.816;20.538;2023-04-04T01:30:35;99264.25;;;-0.09;100.00
66176;BME280;52977;44.816;20.538;2023-04-04T01:33:12;99311.91;;;0.27;100.00
66176;BME280;52977;44.816;20.538;2023-04-04T01:36:11;99339.00;;;0.25;100.00
66176;BME280;52977;44.816;20.538;2023-04-04T01:41:08;99268.81;;;-0.09;100.00
66176;BME280;52977;44.816;20.538;2023-04-04T01:43:37;99329.06;;;0.26;100.00
66176;BME280;52977;44.816;20.538;2023-04-04T01:46:04;99255.38;;;-0.14;100.00
66176;BME280;52977;44.816;20.538;2023-04-04T01:48:30;99279.03;;;-0.06;100.00
66176;BME280;52977;44.816;20.538;2023-04-04T01:51:01;99313.16;;;0.14;100.00
66176;BME280;52977;44.816;20.538;2023-04-04T01:53:27;99237.28;;;-0.40;100.00
66176;BME280;52977;44.816;20.538;2023-04-04T01:55:53;99300.00;;;0.07;100.00
66176;BME280;52977;44.816;20.538;2023-04-04T01:58:20;99254.84;;;-0.11;100.00
66176;BME280;52977;44.816;20.538;2023-04-04T02:00:47;99248.97;;;-0.08;100.00
66176;BME280;52977;44.816;20.538;2023-04-04T02:03:13;99258.59;;;-0.12;100.00
66176;BME280;52977;44.816;20.538;2023-04-04T02:05:38;99200.72;;;-0.56;100.00
66176;BME280;52977;44.816;20.538;2023-04-04T02:08:05;99283.84;;;-0.08;100.00
66176;BME280;52977;44.816;20.538;2023-04-04T02:10:40;99261.75;;;-0.26;100.00
66176;BME280;52977;44.816;20.538;2023-04-04T02:13:06;99190.75;;;-0.66;100.00
66176;BME280;52977;44.816;20.538;2023-04-04T02:15:33;99255.88;;;-0.28;100.00
66176;BME280;52977;44.816;20.538;2023-04-04T02:18:00;99296.75;;;-0.05;100.00
66176;BME280;52977;44.816;20.538;2023-04-04T02:20:26;99271.44;;;-0.25;100.00
66176;BME280;52977;44.816;20.538;2023-04-04T02:22:53;99315.06;;;0.13;100.00
66176;BME280;52977;44.816;20.538;2023-04-04T02:25:24;99243.78;;;-0.25;100.00
66176;BME280;52977;44.816;20.538;2023-04-04T02:27:50;99281.47;;;0.01;100.00
66176;BME280;52977;44.816;20.538;2023-04-04T02:30:16;99285.00;;;0.11;100.00
66176;BME280;52977;44.816;20.538;2023-04-04T02:32:43;99290.06;;;0.08;100.00
66176;BME280;52977;44.816;20.538;2023-04-04T02:35:13;99217.19;;;-0.37;100.00
66176;BME280;52977;44.816;20.538;2023-04-04T02:37:44;99284.19;;;0.16;100.00
66176;BME280;52977;44.816;20.538;2023-04-04T02:40:14;99275.31;;;0.10;100.00
66176;BME280;52977;44.816;20.538;2023-04-04T02:42:43;99281.25;;;0.17;100.00
66176;BME280;52977;44.816;20.538;2023-04-04T02:45:10;99233.97;;;-0.04;100.00
66176;BME280;52977;44.816;20.538;2023-04-04T02:47:39;99277.47;;;0.13;100.00
66176;BME280;52977;44.816;20.538;2023-04-04T02:50:06;99186.03;;;-0.48;100.00
66176;BME280;52977;44.816;20.538;2023-04-04T02:52:34;99219.38;;;-0.29;100.00
66176;BME280;52977;44.816;20.538;2023-04-04T02:55:07;99282.25;;;0.01;100.00
66176;BME280;52977;44.816;20.538;2023-04-04T02:57:36;99243.56;;;-0.13;100.00
66176;BME280;52977;44.816;20.538;2023-04-04T03:00:02;99263.25;;;0.08;100.00
66176;BME280;52977;44.816;20.538;2023-04-04T03:02:29;99277.75;;;0.12;100.00
66176;BME280;52977;44.816;20.538;2023-04-04T03:04:55;99253.28;;;0.08;100.00
66176;BME280;52977;44.816;20.538;2023-04-04T03:07:22;99209.16;;;-0.32;100.00
66176;BME280;52977;44.816;20.538;2023-04-04T03:09:50;99267.25;;;0.05;100.00
66176;BME280;52977;44.816;20.538;2023-04-04T03:12:19;99243.00;;;-0.15;100.00
66176;BME280;52977;44.816;20.538;2023-04-04T03:14:45;99268.28;;;-0.06;100.00
66176;BME280;52977;44.816;20.538;2023-04-04T03:17:11;99276.91;;;-0.04;100.00
66176;BME280;52977;44.816;20.538;2023-04-04T03:19:43;99256.50;;;-0.05;100.00
66176;BME280;52977;44.816;20.538;2023-04-04T03:22:10;99232.84;;;-0.13;100.00
66176;BME280;52977;44.816;20.538;2023-04-04T03:24:37;99236.88;;;-0.06;100.00
66176;BME280;52977;44.816;20.538;2023-04-04T03:27:03;99145.25;;;-0.56;100.00
66176;BME280;52977;44.816;20.538;2023-04-04T03:29:29;99254.16;;;0.19;100.00
66176;BME280;52977;44.816;20.538;2023-04-04T03:31:56;99267.03;;;0.22;100.00
66176;BME280;52977;44.816;20.538;2023-04-04T03:34:22;99262.16;;;0.14;100.00
66176;BME280;52977;44.816;20.538;2023-04-04T03:36:49;99236.09;;;-0.01;100.00
66176;BME280;52977;44.816;20.538;2023-04-04T03:39:19;99243.59;;;-0.08;100.00
66176;BME280;52977;44.816;20.538;2023-04-04T03:41:45;99226.91;;;-0.21;100.00
66176;BME280;52977;44.816;20.538;2023-04-04T03:44:11;99267.03;;;0.17;100.00
66176;BME280;52977;44.816;20.538;2023-04-04T03:46:38;99252.47;;;-0.03;100.00
66176;BME280;52977;44.816;20.538;2023-04-04T03:49:06;99265.38;;;0.06;100.00
66176;BME280;52977;44.816;20.538;2023-04-04T03:51:32;99276.44;;;0.20;100.00
66176;BME280;52977;44.816;20.538;2023-04-04T03:53:59;99280.44;;;0.22;100.00
66176;BME280;52977;44.816;20.538;2023-04-04T03:56:25;99261.63;;;0.12;100.00
66176;BME280;52977;44.816;20.538;2023-04-04T03:58:52;99256.81;;;0.14;100.00
66176;BME280;52977;44.816;20.538;2023-04-04T04:01:20;99271.09;;;0.30;100.00
66176;BME280;52977;44.816;20.538;2023-04-04T04:03:46;99275.41;;;0.31;100.00
66176;BME280;52977;44.816;20.538;2023-04-04T04:06:13;99244.72;;;0.06;100.00
66176;BME280;52977;44.816;20.538;2023-04-04T04:08:39;99244.16;;;-0.01;100.00
66176;BME280;52977;44.816;20.538;2023-04-04T04:11:05;99138.13;;;-0.82;100.00
66176;BME280;52977;44.816;20.538;2023-04-04T04:13:35;99280.16;;;0.13;100.00
66176;BME280;52977;44.816;20.538;2023-04-04T04:16:04;99275.34;;;0.15;100.00
66176;BME280;52977;44.816;20.538;2023-04-04T04:18:30;99276.38;;;0.09;100.00
66176;BME280;52977;44.816;20.538;2023-04-04T04:20:58;99287.13;;;0.09;100.00
66176;BME280;52977;44.816;20.538;2023-04-04T04:23:25;99290.94;;;0.19;100.00
66176;BME280;52977;44.816;20.538;2023-04-04T04:25:52;99293.31;;;0.10;100.00
66176;BME280;52977;44.816;20.538;2023-04-04T04:28:21;99282.81;;;0.03;100.00
66176;BME280;52977;44.816;20.538;2023-04-04T04:30:48;99232.75;;;-0.34;100.00
66176;BME280;52977;44.816;20.538;2023-04-04T04:33:18;99258.59;;;-0.07;100.00
66176;BME280;52977;44.816;20.538;2023-04-04T04:35:59;99311.84;;;0.16;100.00
66176;BME280;52977;44.816;20.538;2023-04-04T04:38:30;99199.66;;;-0.55;100.00
66176;BME280;52977;44.816;20.538;2023-04-04T04:40:57;99298.41;;;0.16;100.00
66176;BME280;52977;44.816;20.538;2023-04-04T04:43:29;99241.84;;;-0.35;100.00
66176;BME280;52977;44.816;20.538;2023-04-04T04:45:55;99238.03;;;-0.49;100.00
66176;BME280;52977;44.816;20.538;2023-04-04T04:48:21;99331.66;;;0.05;100.00
66176;BME280;52977;44.816;20.538;2023-04-04T04:50:51;99276.00;;;-0.20;100.00
66176;BME280;52977;44.816;20.538;2023-04-04T04:53:28;99305.94;;;0.14;100.00
66176;BME280;52977;44.816;20.538;2023-04-04T04:55:54;99297.06;;;0.09;100.00
66176;BME280;52977;44.816;20.538;2023-04-04T04:58:20;99253.75;;;-0.21;100.00
66176;BME280;52977;44.816;20.538;2023-04-04T05:00:54;99260.19;;;-0.16;100.00
66176;BME280;52977;44.816;20.538;2023-04-04T05:03:30;99327.94;;;0.11;100.00
66176;BME280;52977;44.816;20.538;2023-04-04T05:06:06;99283.00;;;-0.19;100.00
66176;BME280;52977;44.816;20.538;2023-04-04T05:08:34;99328.72;;;0.07;100.00
66176;BME280;52977;44.816;20.538;2023-04-04T05:11:07;99309.84;;;-0.09;100.00
66176;BME280;52977;44.816;20.538;2023-04-04T05:13:34;99282.09;;;-0.35;100.00
66176;BME280;52977;44.816;20.538;2023-04-04T05:16:01;99338.38;;;0.08;100.00
66176;BME280;52977;44.816;20.538;2023-04-04T05:18:27;99348.34;;;0.12;100.00
66176;BME280;52977;44.816;20.538;2023-04-04T05:20:55;99317.69;;;-0.02;100.00
66176;BME280;52977;44.816;20.538;2023-04-04T05:23:24;99256.34;;;-0.36;100.00
66176;BME280;52977;44.816;20.538;2023-04-04T05:25:51;99334.09;;;0.07;100.00
66176;BME280;52977;44.816;20.538;2023-04-04T05:28:19;99309.84;;;-0.09;100.00
66176;BME280;52977;44.816;20.538;2023-04-04T05:30:46;99267.59;;;-0.39;100.00
66176;BME280;52977;44.816;20.538;2023-04-04T05:33:22;99330.59;;;0.06;100.00
66176;BME280;52977;44.816;20.538;2023-04-04T05:35:59;99323.06;;;0.03;100.00
66176;BME280;52977;44.816;20.538;2023-04-04T05:38:26;99250.97;;;-0.41;100.00
66176;BME280;52977;44.816;20.538;2023-04-04T05:40:53;99272.19;;;-0.29;100.00
66176;BME280;52977;44.816;20.538;2023-04-04T05:43:20;99326.25;;;-0.05;100.00
66176;BME280;52977;44.816;20.538;2023-04-04T05:45:56;99276.75;;;-0.30;100.00
66176;BME280;52977;44.816;20.538;2023-04-04T05:48:23;99198.22;;;-0.73;100.00
66176;BME280;52977;44.816;20.538;2023-04-04T05:50:51;99324.94;;;0.03;100.00
66176;BME280;52977;44.816;20.538;2023-04-04T05:53:21;99283.47;;;-0.27;100.00
66176;BME280;52977;44.816;20.538;2023-04-04T05:55:52;99322.00;;;-0.01;100.00
66176;BME280;52977;44.816;20.538;2023-04-04T05:58:19;99302.59;;;-0.13;100.00
66176;BME280;52977;44.816;20.538;2023-04-04T06:00:50;99240.22;;;-0.41;100.00
66176;BME280;52977;44.816;20.538;2023-04-04T06:03:16;99227.78;;;-0.63;100.00
66176;BME280;52977;44.816;20.538;2023-04-04T06:05:48;99318.94;;;-0.20;100.00
66176;BME280;52977;44.816;20.538;2023-04-04T06:08:16;99311.69;;;-0.20;100.00
66176;BME280;52977;44.816;20.538;2023-04-04T06:10:43;99319.53;;;-0.08;100.00
66176;BME280;52977;44.816;20.538;2023-04-04T06:13:09;99332.16;;;-0.08;100.00
66176;BME280;52977;44.816;20.538;2023-04-04T06:15:36;99304.88;;;0.15;100.00
66176;BME280;52977;44.816;20.538;2023-04-04T06:18:02;99326.84;;;0.07;100.00
66176;BME280;52977;44.816;20.538;2023-04-04T06:20:28;99260.09;;;-0.37;100.00
66176;BME280;52977;44.816;20.538;2023-04-04T06:22:54;99295.34;;;-0.18;100.00
66176;BME280;52977;44.816;20.538;2023-04-04T06:25:21;99242.84;;;-0.57;100.00
66176;BME280;52977;44.816;20.538;2023-04-04T06:27:47;99323.84;;;-0.07;100.00
66176;BME280;52977;44.816;20.538;2023-04-04T06:30:13;99338.09;;;0.04;100.00
66176;BME280;52977;44.816;20.538;2023-04-04T06:32:45;99327.91;;;0.06;100.00
66176;BME280;52977;44.816;20.538;2023-04-04T06:35:15;99297.78;;;-0.11;100.00
66176;BME280;52977;44.816;20.538;2023-04-04T06:37:46;99301.81;;;-0.09;100.00
66176;BME280;52977;44.816;20.538;2023-04-04T06:40:17;99309.34;;;-0.06;100.00
66176;BME280;52977;44.816;20.538;2023-04-04T06:42:50;99318.47;;;-0.02;100.00
66176;BME280;52977;44.816;20.538;2023-04-04T06:45:18;99285.34;;;-0.33;100.00
66176;BME280;52977;44.816;20.538;2023-04-04T06:47:45;99249.34;;;-0.47;100.00
66176;BME280;52977;44.816;20.538;2023-04-04T06:50:11;99296.38;;;-0.24;100.00
66176;BME280;52977;44.816;20.538;2023-04-04T06:52:38;99326.00;;;-0.04;100.00
66176;BME280;52977;44.816;20.538;2023-04-04T06:55:05;99329.22;;;-0.02;100.00
66176;BME280;52977;44.816;20.538;2023-04-04T06:57:31;99340.78;;;-0.01;100.00
66176;BME280;52977;44.816;20.538;2023-04-04T06:59:58;99321.41;;;-0.03;100.00
66176;BME280;52977;44.816;20.538;2023-04-04T07:02:23;99294.34;;;-0.49;100.00
66176;BME280;52977;44.816;20.538;2023-04-04T07:04:49;99314.88;;;-0.28;100.00
66176;BME280;52977;44.816;20.538;2023-04-04T07:07:15;99299.56;;;-0.27;100.00
66176;BME280;52977;44.816;20.538;2023-04-04T07:09:42;99243.53;;;-0.72;100.00
66176;BME280;52977;44.816;20.538;2023-04-04T07:12:08;99340.19;;;-0.08;100.00
66176;BME280;52977;44.816;20.538;2023-04-04T07:14:35;99313.25;;;-0.29;100.00
66176;BME280;52977;44.816;20.538;2023-04-04T07:17:01;99350.44;;;0.05;100.00
66176;BME280;52977;44.816;20.538;2023-04-04T07:19:27;99342.94;;;0.02;100.00
66176;BME280;52977;44.816;20.538;2023-04-04T07:21:54;99266.66;;;-0.65;100.00
66176;BME280;52977;44.816;20.538;2023-04-04T07:24:20;99273.75;;;-0.44;100.00
66176;BME280;52977;44.816;20.538;2023-04-04T07:26:46;99317.88;;;-0.19;100.00
66176;BME280;52977;44.816;20.538;2023-04-04T07:29:13;99365.00;;;0.14;100.00
66176;BME280;52977;44.816;20.538;2023-04-04T07:31:39;99358.72;;;-0.07;100.00
66176;BME280;52977;44.816;20.538;2023-04-04T07:34:05;99283.66;;;-0.44;100.00
66176;BME280;52977;44.816;20.538;2023-04-04T07:36:32;99337.53;;;-0.08;100.00
66176;BME280;52977;44.816;20.538;2023-04-04T07:38:59;99367.72;;;0.25;100.00
66176;BME280;52977;44.816;20.538;2023-04-04T07:41:25;99382.75;;;0.26;100.00
66176;BME280;52977;44.816;20.538;2023-04-04T07:43:52;99374.97;;;0.24;100.00
66176;BME280;52977;44.816;20.538;2023-04-04T07:46:18;99352.88;;;0.02;100.00
66176;BME280;52977;44.816;20.538;2023-04-04T07:48:45;99310.09;;;-0.21;100.00
66176;BME280;52977;44.816;20.538;2023-04-04T07:51:11;99353.66;;;0.02;100.00
66176;BME280;52977;44.816;20.538;2023-04-04T07:53:37;99307.75;;;-0.07;100.00
66176;BME280;52977;44.816;20.538;2023-04-04T07:56:03;99333.00;;;0.03;100.00
66176;BME280;52977;44.816;20.538;2023-04-04T07:58:33;99375.50;;;0.21;100.00
66176;BME280;52977;44.816;20.538;2023-04-04T08:01:01;99341.34;;;0.06;100.00
66176;BME280;52977;44.816;20.538;2023-04-04T08:03:28;99372.00;;;0.15;100.00
66176;BME280;52977;44.816;20.538;2023-04-04T08:05:54;99378.19;;;0.26;100.00
66176;BME280;52977;44.816;20.538;2023-04-04T08:08:22;99310.88;;;-0.20;100.00
66176;BME280;52977;44.816;20.538;2023-04-04T08:10:48;99366.38;;;0.22;100.00
66176;BME280;52977;44.816;20.538;2023-04-04T08:13:15;99377.75;;;0.45;100.00
66176;BME280;52977;44.816;20.538;2023-04-04T08:15:40;99333.31;;;0.11;100.00
66176;BME280;52977;44.816;20.538;2023-04-04T08:18:06;99314.88;;;-0.23;100.00
66176;BME280;52977;44.816;20.538;2023-04-04T08:20:33;99383.53;;;0.16;100.00
66176;BME280;52977;44.816;20.538;2023-04-04T08:23:00;99384.59;;;0.10;100.00
66176;BME280;52977;44.816;20.538;2023-04-04T08:25:26;99389.75;;;0.27;100.00
66176;BME280;52977;44.816;20.538;2023-04-04T08:27:52;99352.63;;;0.13;100.00
66176;BME280;52977;44.816;20.538;2023-04-04T08:30:18;99381.97;;;0.25;100.00
66176;BME280;52977;44.816;20.538;2023-04-04T08:32:45;99378.25;;;0.37;100.00
66176;BME280;52977;44.816;20.538;2023-04-04T08:35:11;99393.28;;;0.32;100.00
66176;BME280;52977;44.816;20.538;2023-04-04T08:37:37;99361.25;;;0.21;100.00
66176;BME280;52977;44.816;20.538;2023-04-04T08:40:05;99391.66;;;0.31;100.00
66176;BME280;52977;44.816;20.538;2023-04-04T08:42:32;99382.38;;;0.02;100.00
66176;BME280;52977;44.816;20.538;2023-04-04T08:45:03;99392.38;;;0.11;100.00
66176;BME280;52977;44.816;20.538;2023-04-04T08:47:30;99357.84;;;-0.18;100.00
66176;BME280;52977;44.816;20.538;2023-04-04T08:50:04;99339.84;;;-0.22;100.00
66176;BME280;52977;44.816;20.538;2023-04-04T08:52:35;99391.88;;;0.20;100.00
66176;BME280;52977;44.816;20.538;2023-04-04T08:55:04;99417.41;;;0.27;100.00
66176;BME280;52977;44.816;20.538;2023-04-04T08:57:30;99417.41;;;0.27;100.00
66176;BME280;52977;44.816;20.538;2023-04-04T08:59:56;99408.22;;;0.18;100.00
66176;BME280;52977;44.816;20.538;2023-04-04T09:02:30;99402.81;;;0.08;100.00
66176;BME280;52977;44.816;20.538;2023-04-04T09:04:59;99419.81;;;0.29;100.00
66176;BME280;52977;44.816;20.538;2023-04-04T09:07:27;99329.44;;;-0.13;100.00
66176;BME280;52977;44.816;20.538;2023-04-04T09:09:54;99351.66;;;-0.23;100.00
66176;BME280;52977;44.816;20.538;2023-04-04T09:12:21;99429.78;;;0.28;100.00
66176;BME280;52977;44.816;20.538;2023-04-04T09:14:49;99406.88;;;0.15;100.00
66176;BME280;52977;44.816;20.538;2023-04-04T09:17:16;99418.81;;;0.35;100.00
66176;BME280;52977;44.816;20.538;2023-04-04T09:19:43;99334.19;;;-0.26;100.00
66176;BME280;52977;44.816;20.538;2023-04-04T09:22:09;99340.13;;;-0.24;100.00
66176;BME280;52977;44.816;20.538;2023-04-04T09:24:40;99396.13;;;0.10;100.00
66176;BME280;52977;44.816;20.538;2023-04-04T09:27:08;99441.06;;;0.36;100.00
66176;BME280;52977;44.816;20.538;2023-04-04T09:29:39;99437.81;;;0.28;100.00
66176;BME280;52977;44.816;20.538;2023-04-04T09:32:11;99433.28;;;0.34;100.00
66176;BME280;52977;44.816;20.538;2023-04-04T09:34:38;99445.97;;;0.44;100.00
66176;BME280;52977;44.816;20.538;2023-04-04T09:37:05;99438.94;;;0.38;100.00
66176;BME280;52977;44.816;20.538;2023-04-04T09:39:32;99435.66;;;0.25;100.00
66176;BME280;52977;44.816;20.538;2023-04-04T09:42:00;99452.63;;;0.36;100.00
66176;BME280;52977;44.816;20.538;2023-04-04T09:44:27;99450.00;;;0.51;100.00
66176;BME280;52977;44.816;20.538;2023-04-04T09:49:43;99454.78;;;0.34;100.00
66176;BME280;52977;44.816;20.538;2023-04-04T09:52:19;99412.06;;;0.38;100.00
66176;BME280;52977;44.816;20.538;2023-04-04T09:55:15;99438.75;;;0.55;100.00
66176;BME280;52977;44.816;20.538;2023-04-04T09:57:41;99443.31;;;0.49;100.00
66176;BME280;52977;44.816;20.538;2023-04-04T10:00:10;99436.34;;;0.58;100.00
66176;BME280;52977;44.816;20.538;2023-04-04T10:02:38;99433.72;;;0.68;100.00
66176;BME280;52977;44.816;20.538;2023-04-04T10:05:08;99452.50;;;0.63;100.00
66176;BME280;52977;44.816;20.538;2023-04-04T10:07:38;99420.63;;;0.24;100.00
66176;BME280;52977;44.816;20.538;2023-04-04T10:10:05;99446.78;;;0.49;100.00
66176;BME280;52977;44.816;20.538;2023-04-04T10:12:32;99455.09;;;0.48;100.00
66176;BME280;52977;44.816;20.538;2023-04-04T10:14:58;99448.97;;;0.58;100.00
66176;BME280;52977;44.816;20.538;2023-04-04T10:17:35;99427.91;;;0.34;100.00
66176;BME280;52977;44.816;20.538;2023-04-04T10:20:06;99430.63;;;0.44;100.00
66176;BME280;52977;44.816;20.538;2023-04-04T10:22:35;99391.06;;;0.19;100.00
66176;BME280;52977;44.816;20.538;2023-04-04T10:25:01;99471.53;;;0.57;100.00
66176;BME280;52977;44.816;20.538;2023-04-04T10:27:28;99451.09;;;0.56;100.00
66176;BME280;52977;44.816;20.538;2023-04-04T10:29:54;99411.72;;;0.19;100.00
66176;BME280;52977;44.816;20.538;2023-04-04T10:32:27;99265.91;;;-0.56;100.00
66176;BME280;52977;44.816;20.538;2023-04-04T10:35:06;99460.78;;;0.57;100.00
66176;BME280;52977;44.816;20.538;2023-04-04T10:37:51;99408.56;;;0.32;100.00
66176;BME280;52977;44.816;20.538;2023-04-04T10:40:20;99409.91;;;0.34;100.00
66176;BME280;52977;44.816;20.538;2023-04-04T10:42:48;99423.66;;;0.38;100.00
66176;BME280;52977;44.816;20.538;2023-04-04T10:45:16;99466.25;;;0.77;100.00
66176;BME280;52977;44.816;20.538;2023-04-04T10:47:43;99465.09;;;0.58;100.00
66176;BME280;52977;44.816;20.538;2023-04-04T10:50:10;99396.75;;;0.33;100.00
66176;BME280;52977;44.816;20.538;2023-04-04T10:52:39;99472.84;;;0.54;100.00
66176;BME280;52977;44.816;20.538;2023-04-04T10:55:07;99421.53;;;0.45;100.00
66176;BME280;52977;44.816;20.538;2023-04-04T10:57:36;99459.00;;;0.78;100.00
66176;BME280;52977;44.816;20.538;2023-04-04T11:00:04;99469.91;;;0.56;100.00
66176;BME280;52977;44.816;20.538;2023-04-04T11:07:44;99462.09;;;0.49;100.00
66176;BME280;52977;44.816;20.538;2023-04-04T11:10:20;99470.28;;;0.80;100.00
66176;BME280;52977;44.816;20.538;2023-04-04T11:12:52;99474.31;;;0.77;100.00
66176;BME280;52977;44.816;20.538;2023-04-04T11:15:24;99451.28;;;0.39;100.00
66176;BME280;52977;44.816;20.538;2023-04-04T11:17:59;99472.59;;;0.56;100.00
66176;BME280;52977;44.816;20.538;2023-04-04T11:20:34;99393.16;;;0.12;100.00
66176;BME280;52977;44.816;20.538;2023-04-04T11:23:08;99475.88;;;0.63;100.00
66176;BME280;52977;44.816;20.538;2023-04-04T11:25:37;99470.69;;;0.51;100.00
66176;BME280;52977;44.816;20.538;2023-04-04T11:28:14;99484.19;;;0.66;100.00
66176;BME280;52977;44.816;20.538;2023-04-04T11:34:06;99478.28;;;0.64;100.00
66176;BME280;52977;44.816;20.538;2023-04-04T11:39:07;99433.31;;;0.39;100.00
66176;BME280;52977;44.816;20.538;2023-04-04T11:44:25;99436.56;;;0.51;100.00
66176;BME280;52977;44.816;20.538;2023-04-04T11:49:28;99473.69;;;0.60;100.00
66176;BME280;52977;44.816;20.538;2023-04-04T11:51:57;99471.00;;;0.55;100.00
66176;BME280;52977;44.816;20.538;2023-04-04T11:54:23;99461.03;;;0.55;100.00
66176;BME280;52977;44.816;20.538;2023-04-04T11:56:50;99432.72;;;0.32;100.00
66176;BME280;52977;44.816;20.538;2023-04-04T11:59:20;99469.44;;;0.69;100.00
66176;BME280;52977;44.816;20.538;2023-04-04T12:01:47;99477.47;;;0.59;100.00
66176;BME280;52977;44.816;20.538;2023-04-04T12:04:19;99356.25;;;-0.13;100.00
66176;BME280;52977;44.816;20.538;2023-04-04T12:06:48;99466.44;;;0.60;100.00
66176;BME280;52977;44.816;20.538;2023-04-04T12:09:16;99459.13;;;0.45;100.00
66176;BME280;52977;44.816;20.538;2023-04-04T12:11:49;99399.28;;;0.02;100.00
66176;BME280;52977;44.816;20.538;2023-04-04T12:14:22;99375.03;;;-0.13;100.00
66176;BME280;52977;44.816;20.538;2023-04-04T12:16:54;99457.50;;;0.44;100.00
66176;BME280;52977;44.816;20.538;2023-04-04T12:19:24;99345.13;;;-0.32;100.00
66176;BME280;52977;44.816;20.538;2023-04-04T12:21:52;99433.25;;;0.29;100.00
66176;BME280;52977;44.816;20.538;2023-04-04T12:24:19;99476.63;;;0.58;100.00
66176;BME280;52977;44.816;20.538;2023-04-04T12:26:48;99404.66;;;0.02;100.00
66176;BME280;52977;44.816;20.538;2023-04-04T12:29:17;99474.72;;;0.48;100.00
66176;BME280;52977;44.816;20.538;2023-04-04T12:31:48;99501.13;;;0.67;100.00
66176;BME280;52977;44.816;20.538;2023-04-04T12:34:22;99482.25;;;0.51;100.00
66176;BME280;52977;44.816;20.538;2023-04-04T12:36:52;99451.03;;;0.35;100.00
66176;BME280;52977;44.816;20.538;2023-04-04T12:39:20;99416.53;;;0.16;100.00
66176;BME280;52977;44.816;20.538;2023-04-04T12:41:52;99373.50;;;-0.04;100.00
66176;BME280;52977;44.816;20.538;2023-04-04T12:44:37;99423.22;;;0.14;100.00
66176;BME280;52977;44.816;20.538;2023-04-04T12:47:06;99489.56;;;0.66;100.00
66176;BME280;52977;44.816;20.538;2023-04-04T12:49:40;99448.38;;;0.45;100.00
66176;BME280;52977;44.816;20.538;2023-04-04T12:52:19;99489.91;;;0.80;100.00
66176;BME280;52977;44.816;20.538;2023-04-04T12:54:46;99493.38;;;0.81;100.00
66176;BME280;52977;44.816;20.538;2023-04-04T12:57:23;99471.66;;;0.82;100.00
66176;BME280;52977;44.816;20.538;2023-04-04T12:59:49;99413.09;;;0.26;100.00
66176;BME280;52977;44.816;20.538;2023-04-04T13:02:21;99493.47;;;1.01;100.00
66176;BME280;52977;44.816;20.538;2023-04-04T13:04:51;99429.13;;;0.59;100.00
66176;BME280;52977;44.816;20.538;2023-04-04T13:07:27;99469.16;;;0.65;100.00
66176;BME280;52977;44.816;20.538;2023-04-04T13:10:02;99490.97;;;0.74;100.00
66176;BME280;52977;44.816;20.538;2023-04-04T13:12:57;99487.19;;;0.75;100.00
66176;BME280;52977;44.816;20.538;2023-04-04T13:15:47;99486.09;;;0.71;100.00